Time;durP1;ratioP1;P1;durP2;ratioP2;P2;SDS_P1;SDS_P2;PMS_P1;PMS_P2;Temp;Humidity;BMP_temperature;BMP_pressure;BME280_temperature;BME280_humidity;BME280_pressure;Samples;Min_cycle;Max_cycle;Signal;HPM_P1;HPM_P2
2021/12/06 00:03:47;;;;;;;49.60;26.02;;;;;;;0.61;100.00;99948.16;3489632;82;98956;-83
2021/12/06 00:08:48;;;;;;;60.13;29.40;;;;;;;0.55;100.00;99949.45;3497185;82;98757;-83
2021/12/06 00:13:49;;;;;;;51.47;25.80;;;;;;;0.56;100.00;99946.20;3480420;82;98735;-83
2021/12/06 00:18:51;;;;;;;55.13;27.47;;;;;;;0.50;100.00;99942.08;3478344;82;98862;-84
2021/12/06 00:23:52;;;;;;;50.20;26.07;;;;;;;0.49;100.00;99955.35;3472261;82;98805;-84
2021/12/06 00:28:57;;;;;;;51.93;26.27;;;;;;;0.49;100.00;99962.93;3492115;82;98917;-84
2021/12/06 00:34:00;;;;;;;53.90;26.13;;;;;;;0.52;100.00;99964.20;3489753;82;98604;-83
2021/12/06 00:39:03;;;;;;;48.63;23.93;;;;;;;0.52;100.00;99958.23;3479357;82;98538;-82
2021/12/06 00:44:07;;;;;;;55.53;27.33;;;;;;;0.50;100.00;99963.16;3480527;82;98853;-82
2021/12/06 00:49:10;;;;;;;54.23;27.30;;;;;;;0.55;100.00;99964.92;3483373;82;98923;-83
2021/12/06 00:54:11;;;;;;;52.53;25.87;;;;;;;0.53;100.00;99963.88;3501175;82;98923;-83
2021/12/06 00:59:12;;;;;;;48.53;26.00;;;;;;;0.56;100.00;99978.69;3487432;82;98103;-83
2021/12/06 01:04:12;;;;;;;53.30;24.30;;;;;;;0.56;100.00;99985.46;3479856;83;99238;-82
2021/12/06 01:09:13;;;;;;;51.53;24.80;;;;;;;0.56;100.00;99989.52;3481879;83;34900;-82
2021/12/06 01:14:15;;;;;;;51.10;25.00;;;;;;;0.56;100.00;99997.06;3486915;82;99076;-83
2021/12/06 01:19:16;;;;;;;51.87;25.07;;;;;;;0.56;100.00;99998.42;3495086;82;98838;-83
2021/12/06 01:24:23;;;;;;;56.67;27.13;;;;;;;0.57;100.00;99987.85;3488754;82;98936;-83
2021/12/06 01:39:52;;;;;;;50.73;22.87;;;;;;;0.56;100.00;100005.19;3486099;82;65360;-81
2021/12/06 01:44:57;;;;;;;47.60;23.87;;;;;;;0.58;100.00;100004.88;3472642;82;98996;-83
2021/12/06 01:50:09;;;;;;;54.53;25.10;;;;;;;0.56;100.00;100005.77;3484826;81;98957;-83
2021/12/06 01:55:15;;;;;;;46.92;22.67;;;;;;;0.58;100.00;100017.06;3477593;82;98991;-83
2021/12/06 02:00:28;;;;;;;48.70;21.48;;;;;;;0.55;100.00;100017.72;3487526;82;99076;-83
2021/12/06 02:05:29;;;;;;;50.92;23.75;;;;;;;0.56;100.00;100021.44;3470217;82;99425;-82
2021/12/06 02:10:30;;;;;;;48.23;22.57;;;;;;;0.55;100.00;100023.91;3484589;82;99313;-83
2021/12/06 02:15:45;;;;;;;49.50;23.93;;;;;;;0.53;100.00;100018.03;3452803;82;99143;-83
2021/12/06 02:20:49;;;;;;;50.10;22.20;;;;;;;0.52;100.00;100023.21;3489771;82;98841;-82
2021/12/06 02:25:47;;;;;;;46.73;21.70;;;;;;;0.55;100.00;100018.49;3486098;82;98912;-83
2021/12/06 02:30:48;;;;;;;47.83;21.87;;;;;;;0.59;100.00;100020.80;3499740;82;99390;-82
2021/12/06 02:35:49;;;;;;;45.17;21.90;;;;;;;0.63;100.00;100019.05;3508599;82;99010;-83
2021/12/06 02:40:49;;;;;;;46.03;20.03;;;;;;;0.68;100.00;100024.85;3487681;82;99637;-84
2021/12/06 02:45:51;;;;;;;45.10;22.50;;;;;;;0.71;100.00;100028.28;3485248;82;98862;-84
2021/12/06 02:50:55;;;;;;;45.90;20.60;;;;;;;0.74;100.00;100033.84;3489182;82;98884;-84
2021/12/06 02:55:59;;;;;;;45.03;20.35;;;;;;;0.73;100.00;100045.77;3484740;81;99527;-84
2021/12/06 03:01:04;;;;;;;43.93;21.53;;;;;;;0.75;100.00;100048.98;3483586;82;99474;-84
2021/12/06 03:06:06;;;;;;;43.60;20.57;;;;;;;0.73;100.00;100054.47;3466389;82;99074;-83
2021/12/06 03:11:19;;;;;;;40.03;22.10;;;;;;;0.75;100.00;100069.84;3498806;82;99456;-84
2021/12/06 03:16:20;;;;;;;45.05;20.40;;;;;;;0.74;100.00;100071.77;3484718;83;99777;-84
2021/12/06 03:21:24;;;;;;;42.43;19.20;;;;;;;0.73;100.00;100076.14;3477910;82;58723;-84
2021/12/06 03:26:27;;;;;;;43.15;19.85;;;;;;;0.71;100.00;100077.03;3501718;82;99480;-83
2021/12/06 03:31:28;;;;;;;45.57;19.20;;;;;;;0.70;100.00;100086.25;3509314;82;99586;-84
2021/12/06 03:36:32;;;;;;;40.83;20.27;;;;;;;0.67;100.00;100090.97;3477669;82;99597;-84
2021/12/06 03:41:33;;;;;;;40.20;19.73;;;;;;;0.68;100.00;100092.00;3510399;82;99815;-83
2021/12/06 03:46:34;;;;;;;40.17;19.17;;;;;;;0.63;100.00;100090.81;3507388;82;99744;-84
2021/12/06 03:51:36;;;;;;;43.67;20.90;;;;;;;0.63;100.00;100096.22;3498393;82;43156;-83
2021/12/06 03:56:39;;;;;;;49.93;21.77;;;;;;;0.63;100.00;100101.64;3488363;82;99788;-83
2021/12/06 04:01:41;;;;;;;45.60;19.87;;;;;;;0.61;100.00;100112.55;3490298;82;101038;-84
2021/12/06 04:06:43;;;;;;;47.03;19.87;;;;;;;0.60;100.00;100113.67;3488342;82;99924;-84
2021/12/06 04:11:45;;;;;;;42.83;18.90;;;;;;;0.62;100.00;100123.04;3440398;82;99757;-83
2021/12/06 04:16:46;;;;;;;46.23;19.17;;;;;;;0.59;100.00;100128.30;3483305;82;99603;-83
2021/12/06 04:21:48;;;;;;;44.27;20.70;;;;;;;0.56;100.00;100133.02;3477770;82;99140;-84
2021/12/06 04:26:50;;;;;;;42.40;18.70;;;;;;;0.55;100.00;100134.91;3482877;82;99559;-83
2021/12/06 04:31:55;;;;;;;40.83;18.73;;;;;;;0.55;100.00;100142.25;3476881;82;99666;-82
2021/12/06 04:36:56;;;;;;;45.80;20.10;;;;;;;0.56;100.00;100144.63;3481081;83;99399;-84
2021/12/06 04:41:57;;;;;;;40.67;17.87;;;;;;;0.51;100.00;100148.05;3496502;82;99682;-84
2021/12/06 04:46:59;;;;;;;46.23;19.63;;;;;;;0.47;100.00;100151.95;3509021;82;99061;-83
2021/12/06 04:52:04;;;;;;;38.08;18.77;;;;;;;0.46;100.00;100160.39;3471341;82;98762;-84
2021/12/06 04:57:17;;;;;;;45.50;18.97;;;;;;;0.46;100.00;100165.26;3477013;82;98652;-84
2021/12/06 05:02:23;;;;;;;38.07;16.00;;;;;;;0.46;100.00;100163.09;3467338;82;98981;-84
2021/12/06 05:07:33;;;;;;;37.38;17.50;;;;;;;0.48;100.00;100176.56;3460524;83;99092;-84
2021/12/06 05:12:34;;;;;;;39.90;17.45;;;;;;;0.46;100.00;100180.15;3499573;82;99004;-84
2021/12/06 05:17:35;;;;;;;43.70;19.47;;;;;;;0.50;100.00;100174.89;3490699;82;99077;-84
2021/12/06 05:22:37;;;;;;;41.50;18.47;;;;;;;0.54;100.00;100180.70;3464849;82;99381;-84
2021/12/06 05:27:38;;;;;;;38.27;17.27;;;;;;;0.55;100.00;100184.22;3503371;82;34829;-83
2021/12/06 05:32:41;;;;;;;37.57;16.43;;;;;;;0.54;100.00;100183.41;3492611;82;99103;-84
2021/12/06 05:37:46;;;;;;;36.27;14.87;;;;;;;0.53;100.00;100189.94;3500349;82;98863;-84
2021/12/06 05:42:48;;;;;;;37.70;16.27;;;;;;;0.54;100.00;100186.66;3470712;82;99015;-85
2021/12/06 05:47:49;;;;;;;37.30;16.27;;;;;;;0.59;100.00;100195.98;3502244;82;99007;-84
2021/12/06 05:52:55;;;;;;;42.10;18.03;;;;;;;0.60;100.00;100203.80;3476507;82;99011;-84
2021/12/06 05:58:02;;;;;;;38.70;16.67;;;;;;;0.59;100.00;100198.70;3497489;82;26630;-84
2021/12/06 06:03:06;;;;;;;43.10;16.82;;;;;;;0.56;100.00;100210.95;3498539;82;98982;-84
2021/12/06 06:08:07;;;;;;;43.10;17.10;;;;;;;0.56;100.00;100216.95;3494972;82;99305;-84
2021/12/06 06:13:08;;;;;;;38.70;16.00;;;;;;;0.59;100.00;100215.75;3473992;82;99237;-83
2021/12/06 06:18:10;;;;;;;35.10;15.90;;;;;;;0.61;100.00;100222.99;3483157;82;99169;-83
2021/12/06 06:23:12;;;;;;;38.58;16.52;;;;;;;0.68;100.00;100222.53;3495077;82;99076;-83
2021/12/06 06:28:14;;;;;;;38.43;16.30;;;;;;;0.72;100.00;100227.56;3480481;83;99010;-83
2021/12/06 06:33:15;;;;;;;40.70;16.02;;;;;;;0.72;100.00;100230.27;3477461;82;98665;-84
2021/12/06 06:38:17;;;;;;;36.60;16.43;;;;;;;0.74;100.00;100223.97;3455392;82;98022;-84
2021/12/06 06:43:19;;;;;;;38.35;17.73;;;;;;;0.75;100.00;100220.15;3488783;81;99059;-84
2021/12/06 06:48:20;;;;;;;37.53;16.50;;;;;;;0.77;100.00;100216.01;3495944;82;99205;-83
2021/12/06 06:53:21;;;;;;;38.80;18.35;;;;;;;0.80;100.00;100226.22;3468576;82;99416;-84
2021/12/06 06:58:23;;;;;;;40.93;18.20;;;;;;;0.80;100.00;100234.34;3475757;82;99436;-84
2021/12/06 07:03:24;;;;;;;38.37;16.43;;;;;;;0.81;100.00;100237.29;3467451;82;98718;-83
2021/12/06 07:08:25;;;;;;;38.10;17.07;;;;;;;0.80;100.00;100253.31;3492410;82;98863;-84
2021/12/06 07:13:27;;;;;;;39.83;18.62;;;;;;;0.80;100.00;100258.72;3491562;82;99115;-84
2021/12/06 07:18:28;;;;;;;38.70;15.73;;;;;;;0.77;100.00;100255.28;3495132;82;99008;-84
2021/12/06 07:23:29;;;;;;;37.97;15.83;;;;;;;0.77;100.00;100259.92;3467695;82;99641;-83
2021/12/06 07:28:30;;;;;;;40.13;16.50;;;;;;;0.77;100.00;100269.40;3464974;82;99095;-84
2021/12/06 07:33:30;;;;;;;38.13;16.03;;;;;;;0.73;100.00;100267.85;3472939;82;99154;-83
2021/12/06 07:38:34;;;;;;;39.13;15.93;;;;;;;0.73;100.00;100271.91;3482659;81;98883;-84
2021/12/06 07:43:35;;;;;;;38.13;15.43;;;;;;;0.71;100.00;100274.72;3497564;81;98904;-84
2021/12/06 07:48:38;;;;;;;38.13;14.57;;;;;;;0.72;100.00;100282.52;3481730;82;98992;-84
2021/12/06 07:53:40;;;;;;;41.57;15.53;;;;;;;0.75;100.00;100283.25;3468297;82;99090;-82
2021/12/06 07:58:41;;;;;;;41.80;16.30;;;;;;;0.77;100.00;100287.00;3483123;82;99539;-83
2021/12/06 08:03:43;;;;;;;38.53;16.63;;;;;;;0.80;100.00;100291.77;3502363;82;98832;-84
2021/12/06 08:08:44;;;;;;;38.13;17.03;;;;;;;0.81;100.00;100296.88;3479941;82;98871;-83
2021/12/06 08:13:54;;;;;;;36.57;15.33;;;;;;;0.87;100.00;100300.22;3472544;82;99164;-83
2021/12/06 08:18:55;;;;;;;36.67;15.30;;;;;;;0.91;100.00;100299.30;3508672;82;99495;-83
2021/12/06 08:23:58;;;;;;;34.07;13.07;;;;;;;0.90;100.00;100308.55;3488082;81;108631;-85
2021/12/06 08:29:04;;;;;;;28.17;12.70;;;;;;;0.86;100.00;100315.70;3481938;82;99675;-83
2021/12/06 08:34:05;;;;;;;31.97;13.58;;;;;;;0.85;100.00;100320.88;3462780;82;98741;-83
2021/12/06 08:39:07;;;;;;;26.57;12.97;;;;;;;0.85;100.00;100324.13;3476194;82;99135;-84
2021/12/06 08:44:08;;;;;;;33.43;14.17;;;;;;;0.81;100.00;100333.45;3481361;82;98964;-84
2021/12/06 08:49:10;;;;;;;32.90;13.93;;;;;;;0.79;100.00;100334.88;3477275;82;99030;-84
2021/12/06 08:54:14;;;;;;;30.83;13.67;;;;;;;0.74;100.00;100334.47;3493365;82;99455;-85
2021/12/06 08:59:16;;;;;;;27.57;13.50;;;;;;;0.73;100.00;100337.48;3486407;81;99464;-87
2021/12/06 09:04:17;;;;;;;29.40;13.68;;;;;;;0.74;100.00;100338.54;3487951;82;99168;-88
2021/12/06 09:09:21;;;;;;;27.23;12.87;;;;;;;0.74;100.00;100352.08;3491768;82;36218;-87
2021/12/06 09:14:23;;;;;;;30.85;11.80;;;;;;;0.69;98.75;100351.41;3496125;82;99123;-86
2021/12/06 09:19:24;;;;;;;28.05;11.80;;;;;;;0.67;98.80;100359.84;3452404;82;98870;-86
2021/12/06 09:24:24;;;;;;;26.60;12.07;;;;;;;0.68;99.01;100359.30;3459376;82;98981;-86
2021/12/06 09:29:25;;;;;;;26.90;11.10;;;;;;;0.73;99.25;100367.28;3476552;82;99060;-86
2021/12/06 09:34:28;;;;;;;24.97;12.47;;;;;;;0.72;98.97;100362.41;3473767;82;98912;-86
2021/12/06 09:39:29;;;;;;;25.10;11.73;;;;;;;0.76;98.46;100369.34;3487471;83;34907;-87
2021/12/06 09:44:30;;;;;;;24.83;10.23;;;;;;;0.79;99.05;100374.16;3495914;81;98892;-86
2021/12/06 09:49:32;;;;;;;24.03;11.77;;;;;;;0.83;98.89;100366.42;3535723;82;98920;-86
2021/12/06 09:54:37;;;;;;;27.30;11.53;;;;;;;0.86;98.78;100367.72;3499764;82;99009;-86
2021/12/06 09:59:41;;;;;;;24.80;12.67;;;;;;;0.91;98.85;100364.32;3525353;82;98851;-86
2021/12/06 10:04:48;;;;;;;27.57;13.97;;;;;;;0.95;99.18;100365.30;3511642;81;99143;-86
2021/12/06 10:09:51;;;;;;;28.13;13.23;;;;;;;1.03;98.93;100361.80;3506113;81;54912;-86
2021/12/06 10:14:55;;;;;;;26.40;12.27;;;;;;;1.03;98.75;100365.05;3511714;82;99073;-83
2021/12/06 10:19:57;;;;;;;27.97;11.83;;;;;;;1.00;98.71;100352.92;3519261;81;99039;-86
2021/12/06 10:24:59;;;;;;;29.30;13.20;;;;;;;0.98;97.96;100353.81;3488671;82;98910;-87
2021/12/06 10:30:08;;;;;;;27.32;11.45;;;;;;;1.00;98.41;100352.92;3508875;82;99267;-87
2021/12/06 10:35:14;;;;;;;28.95;13.55;;;;;;;1.04;98.42;100353.90;3488299;82;98901;-87
2021/12/06 10:40:27;;;;;;;28.43;13.07;;;;;;;1.07;98.68;100349.22;3517318;81;101609;-86
2021/12/06 10:45:33;;;;;;;28.50;12.87;;;;;;;1.09;98.75;100349.69;3498843;82;98963;-86
2021/12/06 10:50:38;;;;;;;26.07;12.10;;;;;;;1.13;98.31;100356.08;3493984;81;98671;-86
2021/12/06 10:55:42;;;;;;;30.13;13.77;;;;;;;1.17;98.12;100358.95;3505156;81;98774;-85
2021/12/06 11:00:57;;;;;;;32.07;13.90;;;;;;;1.16;98.17;100355.43;3524762;81;98943;-87
2021/12/06 11:06:10;;;;;;;23.90;12.13;;;;;;;1.22;98.28;100362.87;3493775;81;99361;-88
2021/12/06 11:11:26;;;;;;;28.67;13.13;;;;;;;1.19;97.76;100371.63;3499690;82;99163;-87
2021/12/06 11:16:33;;;;;;;19.17;9.73;;;;;;;1.21;98.16;100371.55;3509102;81;99420;-86
2021/12/06 11:21:51;;;;;;;26.85;11.40;;;;;;;1.21;97.87;100375.61;3481264;82;67049;-87
2021/12/06 11:27:04;;;;;;;27.00;12.03;;;;;;;1.13;97.67;100381.02;3510496;82;99182;-87
2021/12/06 11:32:13;;;;;;;29.32;14.90;;;;;;;1.13;98.18;100383.73;3500146;81;98933;-87
2021/12/06 11:37:27;;;;;;;22.20;12.23;;;;;;;1.18;98.43;100383.58;3517074;81;98925;-88
2021/12/06 11:42:29;;;;;;;21.13;10.57;;;;;;;1.20;98.38;100383.51;3489217;81;98742;-87
2021/12/06 11:47:30;;;;;;;23.40;10.80;;;;;;;1.18;97.99;100380.33;3489416;81;98900;-86
2021/12/06 11:52:34;;;;;;;18.03;9.17;;;;;;;1.12;97.76;100377.53;3511278;82;98868;-86
2021/12/06 11:57:47;;;;;;;19.87;9.93;;;;;;;1.09;97.63;100385.49;3515172;81;148589;-87
2021/12/06 12:02:58;;;;;;;20.75;10.28;;;;;;;1.05;97.46;100388.01;3503122;82;99087;-85
2021/12/06 12:08:07;;;;;;;17.13;8.87;;;;;;;1.04;97.59;100393.19;3504471;82;98632;-84
2021/12/06 12:13:12;;;;;;;17.47;9.00;;;;;;;1.07;97.64;100395.28;3477263;81;107787;-85
2021/12/06 12:18:12;;;;;;;18.00;8.63;;;;;;;1.09;97.94;100398.47;3444249;82;99324;-83
2021/12/06 12:23:15;;;;;;;18.47;8.93;;;;;;;1.12;97.62;100409.23;3462670;81;98676;-85
2021/12/06 12:28:20;;;;;;;20.43;9.00;;;;;;;1.05;96.65;100407.55;3494071;82;99083;-85
2021/12/06 12:33:20;;;;;;;19.67;10.53;;;;;;;0.97;96.95;100405.59;3457458;82;98684;-86
2021/12/06 12:38:33;;;;;;;19.70;9.90;;;;;;;0.95;96.52;100410.55;3466325;82;98651;-85
2021/12/06 12:43:42;;;;;;;20.23;9.83;;;;;;;0.93;96.96;100406.00;3454648;82;98622;-85
2021/12/06 12:48:57;;;;;;;20.10;10.37;;;;;;;0.96;96.89;100409.42;3478232;83;98819;-84
2021/12/06 12:54:23;;;;;;;21.93;10.07;;;;;;;0.97;97.03;100406.95;3448062;82;99471;-83
2021/12/06 12:59:46;;;;;;;26.17;11.20;;;;;;;1.00;97.04;100401.70;3469376;83;99632;-84
2021/12/06 13:05:11;;;;;;;20.08;9.90;;;;;;;0.96;96.43;100403.46;3405496;83;2252693;-83
2021/12/06 13:10:38;;;;;;;25.60;12.13;;;;;;;0.89;95.70;100398.25;3432091;82;99434;-82
2021/12/06 13:16:06;;;;;;;20.30;10.23;;;;;;;0.80;95.85;100403.64;3426979;83;98614;-84
2021/12/06 13:21:53;;;;;;;22.43;10.87;;;;;;;0.78;96.54;100404.48;3448969;83;98519;-83
2021/12/06 13:27:04;;;;;;;23.35;10.45;;;;;;;0.78;96.30;100390.16;3458262;83;98709;-84
2021/12/06 13:32:58;;;;;;;27.70;12.33;;;;;;;0.77;95.97;100379.09;3434319;82;98991;-84
2021/12/06 13:38:20;;;;;;;25.07;11.60;;;;;;;0.81;96.29;100377.33;3505447;81;98710;-84
2021/12/06 13:43:29;;;;;;;22.40;10.37;;;;;;;0.81;96.06;100381.39;3476245;82;99060;-84
2021/12/06 13:48:38;;;;;;;20.43;10.43;;;;;;;0.79;95.60;100387.16;3523603;81;99240;-84
2021/12/06 13:53:40;;;;;;;24.25;11.50;;;;;;;0.75;95.39;100389.42;3459824;82;98944;-83
2021/12/06 13:58:41;;;;;;;23.83;10.87;;;;;;;0.73;95.40;100393.02;3500103;82;98836;-83
2021/12/06 14:03:44;;;;;;;33.87;13.77;;;;;;;0.74;95.92;100398.12;3431631;82;98312;-83
2021/12/06 14:08:47;;;;;;;29.80;14.20;;;;;;;0.73;95.58;100410.62;3507182;82;99011;-83
2021/12/06 14:13:49;;;;;;;29.67;14.50;;;;;;;0.79;96.12;100415.59;3449340;82;98871;-84
2021/12/06 14:18:51;;;;;;;28.43;14.57;;;;;;;0.80;96.16;100419.89;3513156;81;99348;-84
2021/12/06 14:23:53;;;;;;;25.52;13.70;;;;;;;0.86;96.48;100425.41;3515974;80;98988;-83
2021/12/06 14:28:54;;;;;;;25.63;14.43;;;;;;;0.90;96.17;100432.36;3545289;81;98038;-83
2021/12/06 14:34:02;;;;;;;27.23;13.80;;;;;;;0.95;96.50;100444.41;3541547;81;98757;-83
2021/12/06 14:39:20;;;;;;;26.13;14.10;;;;;;;0.97;96.10;100444.88;3554774;80;98526;-82
2021/12/06 14:44:54;;;;;;;35.53;21.37;;;;;;;0.99;96.51;100455.66;3526534;80;98986;-82
2021/12/06 14:50:01;;;;;;;62.33;37.60;;;;;;;1.00;96.50;100449.69;3526641;81;99092;-82
2021/12/06 14:55:27;;;;;;;72.22;39.88;;;;;;;0.98;96.55;100444.58;3520488;81;98780;-82
2021/12/06 15:00:24;;;;;;;65.23;40.33;;;;;;;0.97;96.46;100447.05;3514376;80;98864;-83
2021/12/06 15:05:39;;;;;;;46.92;29.48;;;;;;;0.96;96.69;100450.87;3495482;81;98956;-83
2021/12/06 15:10:45;;;;;;;70.13;29.67;;;;;;;0.94;96.53;100452.30;3508310;81;99553;-84
2021/12/06 15:15:49;;;;;;;31.17;14.70;;;;;;;0.92;96.59;100451.25;3514729;81;98392;-84
2021/12/06 15:20:53;;;;;;;30.85;14.35;;;;;;;0.96;96.69;100451.42;3509763;81;98782;-83
2021/12/06 15:25:57;;;;;;;20.23;9.63;;;;;;;0.94;96.44;100452.30;3499921;81;98770;-84
2021/12/06 15:31:01;;;;;;;19.73;9.37;;;;;;;0.82;95.38;100452.88;3528524;80;99172;-83
2021/12/06 15:36:07;;;;;;;23.87;11.43;;;;;;;0.80;96.12;100460.52;3507698;81;98717;-83
2021/12/06 15:41:13;;;;;;;21.82;11.33;;;;;;;0.81;96.05;100467.53;3528865;81;98838;-82
2021/12/06 15:46:18;;;;;;;17.35;8.88;;;;;;;0.81;95.99;100462.66;3503358;81;99000;-83
2021/12/06 15:51:24;;;;;;;20.20;9.30;;;;;;;0.81;95.89;100457.24;3548922;80;26537;-83
2021/12/06 15:56:26;;;;;;;18.60;9.67;;;;;;;0.80;95.72;100461.07;3530107;81;98533;-83
2021/12/06 16:01:28;;;;;;;19.33;8.80;;;;;;;0.69;95.26;100460.55;3522865;81;98854;-84
2021/12/06 16:06:32;;;;;;;18.57;9.63;;;;;;;0.67;95.66;100463.33;3533573;81;98701;-81
2021/12/06 16:11:33;;;;;;;17.60;9.50;;;;;;;0.65;95.75;100469.05;3530626;81;99053;-84
2021/12/06 16:16:42;;;;;;;18.33;9.37;;;;;;;0.66;95.82;100468.50;3502124;81;99047;-81
2021/12/06 16:21:46;;;;;;;21.00;9.40;;;;;;;0.63;95.75;100469.92;3517386;81;98578;-84
2021/12/06 16:26:50;;;;;;;17.63;9.17;;;;;;;0.60;95.70;100465.68;3502611;82;98596;-83
2021/12/06 16:32:08;;;;;;;18.67;9.50;;;;;;;0.58;95.99;100465.17;3530857;80;101017;-83
2021/12/06 16:37:22;;;;;;;17.67;7.97;;;;;;;0.58;96.02;100471.41;3532663;81;98895;-84
2021/12/06 16:42:34;;;;;;;21.75;9.15;;;;;;;0.63;96.33;100467.75;3519579;81;98715;-85
2021/12/06 16:47:41;;;;;;;19.00;10.00;;;;;;;0.62;96.13;100476.99;3523268;81;97974;-84
2021/12/06 16:52:52;;;;;;;19.57;9.33;;;;;;;0.65;96.23;100471.75;3519069;81;99230;-85
2021/12/06 16:58:05;;;;;;;17.73;9.17;;;;;;;0.65;96.13;100473.10;3532029;81;39842;-85
2021/12/06 17:03:12;;;;;;;21.15;9.93;;;;;;;0.62;96.00;100472.36;3510971;81;98599;-84
2021/12/06 17:08:21;;;;;;;20.13;9.57;;;;;;;0.63;96.16;100469.92;3532104;80;99022;-84
2021/12/06 17:13:27;;;;;;;20.23;9.88;;;;;;;0.62;96.05;100487.25;3497822;81;98653;-84
2021/12/06 17:18:35;;;;;;;21.37;9.40;;;;;;;0.63;96.11;100488.88;3523154;80;98692;-84
2021/12/06 17:23:39;;;;;;;23.73;11.63;;;;;;;0.63;95.97;100490.77;3531215;81;99166;-84
2021/12/06 17:28:50;;;;;;;40.93;23.53;;;;;;;0.62;96.00;100487.82;3535100;80;99291;-84
2021/12/06 17:34:08;;;;;;;80.70;35.07;;;;;;;0.63;96.02;100490.77;3525932;81;98903;-83
2021/12/06 17:39:13;;;;;;;143.03;51.37;;;;;;;0.62;96.01;100486.47;3528677;81;98496;-83
2021/12/06 17:44:18;;;;;;;178.50;61.33;;;;;;;0.62;96.10;100494.02;3554638;79;98858;-84
2021/12/06 17:49:19;;;;;;;48.50;23.25;;;;;;;0.62;96.07;100492.67;3521938;81;99342;-84
2021/12/06 17:54:24;;;;;;;44.27;18.93;;;;;;;0.63;96.02;100496.19;3525927;80;98858;-84
2021/12/06 17:59:29;;;;;;;26.20;11.57;;;;;;;0.63;96.04;100496.19;3528577;81;98867;-84
2021/12/06 18:04:37;;;;;;;20.57;10.27;;;;;;;0.64;96.04;100495.89;3517456;81;98890;-84
2021/12/06 18:09:39;;;;;;;20.87;9.87;;;;;;;0.63;95.98;100490.23;3529550;81;42857;-84
2021/12/06 18:14:43;;;;;;;19.47;9.70;;;;;;;0.64;96.02;100484.24;3413183;83;98751;-83
2021/12/06 18:19:46;;;;;;;24.43;11.77;;;;;;;0.64;95.94;100491.82;3519011;80;98585;-85
2021/12/06 18:24:48;;;;;;;25.07;13.30;;;;;;;0.63;96.01;100492.13;3536883;79;98946;-85
2021/12/06 18:29:51;;;;;;;35.93;19.50;;;;;;;0.62;96.07;100497.30;3502959;81;98843;-85
2021/12/06 18:34:53;;;;;;;34.48;18.87;;;;;;;0.60;96.01;100500.88;3516832;80;98881;-85
2021/12/06 18:40:00;;;;;;;32.23;15.93;;;;;;;0.61;96.03;100505.97;3533674;81;26886;-84
2021/12/06 18:44:57;;;;;;;27.27;14.80;;;;;;;0.59;96.08;100496.02;3519972;81;99115;-83
2021/12/06 18:49:59;;;;;;;26.67;14.23;;;;;;;0.60;96.14;100489.48;3533089;81;98679;-84
2021/12/06 18:55:00;;;;;;;24.23;12.50;;;;;;;0.60;96.29;100488.70;3511039;81;98884;-83
2021/12/06 19:00:04;;;;;;;33.57;16.00;;;;;;;0.57;96.14;100480.64;3524508;81;99443;-83
2021/12/06 19:05:08;;;;;;;32.53;15.17;;;;;;;0.49;96.23;100477.31;3528119;80;98823;-83
2021/12/06 19:10:11;;;;;;;29.63;14.23;;;;;;;0.48;96.38;100479.77;3533891;81;31756;-83
2021/12/06 19:15:12;;;;;;;30.52;14.87;;;;;;;0.43;96.44;100480.44;3520482;81;98562;-84
2021/12/06 19:20:15;;;;;;;63.13;32.77;;;;;;;0.45;96.61;100476.89;3533598;81;98677;-82
2021/12/06 19:25:21;;;;;;;93.57;46.17;;;;;;;0.43;96.49;100473.13;3500975;81;98836;-84
2021/12/06 19:30:27;;;;;;;63.10;32.00;;;;;;;0.38;96.58;100473.25;3535682;80;98906;-84
2021/12/06 19:35:32;;;;;;;37.23;18.32;;;;;;;0.42;96.70;100473.44;3492871;82;98854;-84
2021/12/06 19:40:31;;;;;;;55.77;23.03;;;;;;;0.42;96.68;100474.78;3512642;80;98880;-84
2021/12/06 19:45:35;;;;;;;63.77;22.57;;;;;;;0.41;96.53;100481.31;3519718;81;98415;-84
2021/12/06 19:50:38;;;;;;;138.43;47.00;;;;;;;0.35;96.64;100479.30;3513171;81;99204;-84
2021/12/06 19:55:42;;;;;;;95.80;32.43;;;;;;;0.25;96.52;100468.72;3522167;81;99164;-85
2021/12/06 20:00:45;;;;;;;65.30;27.23;;;;;;;0.20;96.66;100468.84;3524814;81;98904;-85
2021/12/06 20:05:47;;;;;;;50.27;21.00;;;;;;;0.18;96.55;100472.39;3480000;81;98894;-84
2021/12/06 20:10:48;;;;;;;46.77;20.77;;;;;;;0.17;96.55;100463.25;3509253;81;99008;-85
2021/12/06 20:15:50;;;;;;;42.07;19.27;;;;;;;0.10;96.31;100466.38;3490379;82;98623;-85
2021/12/06 20:20:51;;;;;;;49.47;21.10;;;;;;;0.08;96.60;100463.72;3536739;81;98712;-84
2021/12/06 20:25:54;;;;;;;42.60;19.60;;;;;;;0.12;96.90;100466.07;3520294;81;98926;-84
2021/12/06 20:30:56;;;;;;;34.30;16.40;;;;;;;0.14;96.87;100467.36;3520941;81;98891;-85
2021/12/06 20:35:57;;;;;;;29.93;14.23;;;;;;;0.09;96.28;100464.77;3542316;81;99049;-84
2021/12/06 20:41:02;;;;;;;29.57;14.60;;;;;;;0.02;96.20;100465.73;3556406;80;99374;-84
2021/12/06 20:46:04;;;;;;;32.30;15.50;;;;;;;0.03;96.45;100460.59;3511373;81;99057;-84
2021/12/06 20:51:08;;;;;;;90.27;30.27;;;;;;;0.05;96.56;100457.56;3516604;81;98469;-84
2021/12/06 20:56:09;;;;;;;37.98;17.15;;;;;;;0.05;96.54;100458.91;3514945;81;98840;-84
2021/12/06 21:01:09;;;;;;;35.93;15.17;;;;;;;0.04;96.10;100456.78;3517180;82;98914;-82
2021/12/06 21:06:12;;;;;;;39.73;17.47;;;;;;;0.00;96.28;100453.65;3530489;81;98915;-83
2021/12/06 21:11:24;;;;;;;41.20;19.83;;;;;;;-0.05;96.22;100452.41;3439220;83;98821;-83
2021/12/06 21:16:26;;;;;;;29.93;13.93;;;;;;;-0.05;96.25;100447.00;3501632;82;99099;-84
2021/12/06 21:21:19;;;;;;;27.63;12.57;;;;;;;-0.13;95.94;100442.88;3522114;82;35949;-84
2021/12/06 21:26:20;;;;;;;26.80;12.90;;;;;;;-0.18;95.78;100448.40;3462426;83;98808;-84
2021/12/06 21:31:21;;;;;;;32.90;13.90;;;;;;;-0.23;95.86;100455.27;3504668;81;99018;-83
2021/12/06 21:36:23;;;;;;;28.13;14.60;;;;;;;-0.28;95.71;100450.76;3458846;81;99085;-83
2021/12/06 21:41:24;;;;;;;26.77;12.90;;;;;;;-0.37;95.59;100458.02;3481895;82;99004;-84
2021/12/06 21:46:25;;;;;;;45.83;20.03;;;;;;;-0.37;95.58;100456.09;3487596;82;99573;-85
2021/12/06 21:51:26;;;;;;;32.07;15.37;;;;;;;-0.37;95.80;100455.84;3516564;82;34854;-87
2021/12/06 21:56:27;;;;;;;27.73;13.10;;;;;;;-0.36;95.69;100456.91;3491103;82;98751;-84
2021/12/06 22:01:28;;;;;;;28.67;13.33;;;;;;;-0.36;95.87;100448.22;3495148;81;99028;-85
2021/12/06 22:06:31;;;;;;;30.63;13.30;;;;;;;-0.44;94.98;100453.55;3484752;82;99022;-84
2021/12/06 22:11:33;;;;;;;31.77;14.67;;;;;;;-0.42;95.64;100455.42;3477605;82;98997;-82
2021/12/06 22:16:34;;;;;;;30.33;14.00;;;;;;;-0.53;94.95;100449.17;3409668;84;99159;-84
2021/12/06 22:21:37;;;;;;;28.53;14.20;;;;;;;-0.63;94.54;100451.55;3431657;84;34910;-84
2021/12/06 22:26:38;;;;;;;25.77;12.77;;;;;;;-0.66;94.94;100445.95;3404526;85;98848;-85
2021/12/06 22:31:39;;;;;;;26.30;12.27;;;;;;;-0.71;94.61;100452.23;3391167;84;99299;-85
2021/12/06 22:36:40;;;;;;;26.73;12.17;;;;;;;-0.73;94.80;100445.56;3401955;85;98976;-86
2021/12/06 22:41:40;;;;;;;24.57;12.83;;;;;;;-0.94;94.60;100421.42;3401748;82;103565;-86
2021/12/06 22:46:41;;;;;;;25.37;13.20;;;;;;;-0.94;94.60;100421.42;3411659;84;99151;-86
2021/12/06 22:51:42;;;;;;;27.55;12.47;;;;;;;-0.83;94.43;100439.80;3508302;81;99238;-85
2021/12/06 22:56:43;;;;;;;26.10;12.03;;;;;;;-0.88;94.80;100437.77;3454701;83;99019;-85
2021/12/06 23:01:44;;;;;;;24.60;12.47;;;;;;;-0.91;94.15;100435.66;3449124;83;99188;-84
2021/12/06 23:06:45;;;;;;;25.37;11.83;;;;;;;-0.98;94.23;100435.27;3440671;82;99276;-86
2021/12/06 23:11:46;;;;;;;25.53;11.37;;;;;;;-0.98;94.05;100431.21;3462938;82;99177;-85
2021/12/06 23:16:48;;;;;;;23.13;11.53;;;;;;;-1.04;93.49;100428.37;3425539;83;99599;-85
2021/12/06 23:21:48;;;;;;;32.67;13.47;;;;;;;-1.11;93.33;100430.67;3421083;83;99202;-86
2021/12/06 23:26:54;;;;;;;24.00;11.07;;;;;;;-1.17;93.24;100432.66;3433318;83;99061;-86